createdAt,value
2022-09-28T00:00:56.020Z,0.68
2022-09-28T00:03:28.428Z,0.40
2022-09-28T00:05:59.917Z,0.68
2022-09-28T00:08:31.782Z,0.50
2022-09-28T00:11:03.284Z,0.40
2022-09-28T00:13:35.530Z,0.50
2022-09-28T00:16:07.169Z,0.70
2022-09-28T00:18:39.035Z,0.60
2022-09-28T00:21:12.255Z,0.70
2022-09-28T00:24:03.231Z,0.43
2022-09-28T00:26:34.770Z,1.05
2022-09-28T00:29:06.647Z,0.57
2022-09-28T00:31:38.238Z,0.70
2022-09-28T00:34:10.156Z,0.52
2022-09-28T00:36:41.647Z,0.40
2022-09-28T00:39:14.228Z,0.63
2022-09-28T00:41:45.770Z,0.43
2022-09-28T00:44:17.724Z,0.70
2022-09-28T00:46:49.215Z,0.80
2022-09-28T00:49:21.139Z,0.88
2022-09-28T00:51:52.618Z,0.43
2022-09-28T00:54:24.464Z,0.65
2022-09-28T00:56:56.595Z,0.70
2022-09-28T00:59:28.146Z,0.90
2022-09-28T01:01:59.744Z,0.45
2022-09-28T01:04:31.286Z,0.70
2022-09-28T01:07:03.115Z,0.85
2022-09-28T01:09:34.611Z,0.77
2022-09-28T01:12:06.453Z,0.80
2022-09-28T01:14:37.931Z,0.98
2022-09-28T01:17:09.866Z,0.70
2022-09-28T01:19:41.378Z,1.10
2022-09-28T01:22:13.168Z,0.68
2022-09-28T01:24:44.662Z,0.50
2022-09-28T01:27:16.655Z,0.70
2022-09-28T01:29:48.232Z,0.73
2022-09-28T01:32:19.809Z,0.75
2022-09-28T01:34:51.319Z,1.05
2022-09-28T01:37:23.201Z,0.65
2022-09-28T01:39:54.696Z,0.70
2022-09-28T01:42:26.523Z,0.88
2022-09-28T01:44:58.080Z,0.60
2022-09-28T01:47:29.959Z,1.10
2022-09-28T01:50:01.496Z,0.73
2022-09-28T01:52:33.334Z,1.02
2022-09-28T01:55:04.823Z,0.80
2022-09-28T01:57:36.790Z,0.80
2022-09-28T02:00:08.327Z,1.40
2022-09-28T02:02:40.140Z,0.98
2022-09-28T02:05:11.637Z,0.70
2022-09-28T02:07:43.734Z,0.60
2022-09-28T02:10:15.967Z,0.90
2022-09-28T02:12:47.840Z,1.23
2022-09-28T02:15:19.378Z,0.98
2022-09-28T02:17:51.222Z,0.90
2022-09-28T02:20:22.745Z,1.00
2022-09-28T02:22:54.715Z,0.93
2022-09-28T02:25:26.527Z,1.35
2022-09-28T02:27:58.077Z,1.40
2022-09-28T02:30:29.578Z,1.10
2022-09-28T02:33:01.055Z,0.90
2022-09-28T02:35:35.652Z,1.02
2022-09-28T02:38:07.137Z,1.25
2022-09-28T02:40:39.039Z,0.73
2022-09-28T02:43:10.543Z,1.20
2022-09-28T02:45:42.412Z,1.08
2022-09-28T02:48:13.953Z,0.77
2022-09-28T02:50:46.047Z,1.00
2022-09-28T02:53:17.602Z,0.97
2022-09-28T02:55:49.139Z,1.13
2022-09-28T02:58:20.673Z,1.00
2022-09-28T03:00:52.537Z,1.15
2022-09-28T03:03:24.097Z,0.95
2022-09-28T03:05:55.692Z,1.00
2022-09-28T03:08:27.232Z,0.85
2022-09-28T03:10:59.263Z,1.05
2022-09-28T03:13:30.755Z,1.00
2022-09-28T03:16:02.714Z,0.90
2022-09-28T03:18:34.241Z,0.65
2022-09-28T03:23:39.051Z,0.88
2022-09-28T03:26:10.863Z,0.85
2022-09-28T03:28:42.359Z,0.70
2022-09-28T03:31:14.409Z,0.93
2022-09-28T03:33:46.009Z,0.60
2022-09-28T03:36:17.941Z,1.00
2022-09-28T03:38:49.422Z,1.15
2022-09-28T03:41:21.146Z,0.70
2022-09-28T03:43:52.943Z,1.25
2022-09-28T03:46:24.516Z,1.00
2022-09-28T03:48:56.521Z,0.65
2022-09-28T03:51:28.010Z,1.00
2022-09-28T03:54:00.014Z,0.82
2022-09-28T03:56:31.528Z,0.63
2022-09-28T03:59:03.451Z,1.25
2022-09-28T04:01:35.005Z,1.45
2022-09-28T04:04:06.806Z,1.20
2022-09-28T04:06:38.305Z,1.65
2022-09-28T04:09:10.379Z,1.00
2022-09-28T04:12:02.380Z,0.97
2022-09-28T04:14:33.827Z,1.05
2022-09-28T04:17:07.187Z,1.20
2022-09-28T04:19:38.717Z,0.80
2022-09-28T04:22:10.305Z,0.85
2022-09-28T04:24:43.800Z,1.05
2022-09-28T04:27:34.223Z,1.35
2022-09-28T04:30:06.194Z,1.27
2022-09-28T04:32:37.717Z,0.57
2022-09-28T04:35:09.543Z,1.13
2022-09-28T04:37:41.090Z,1.20
2022-09-28T04:40:13.001Z,1.30
2022-09-28T04:42:44.486Z,0.93
2022-09-28T04:45:16.424Z,0.90
2022-09-28T04:47:47.923Z,1.73
2022-09-28T04:50:19.763Z,1.30
2022-09-28T04:52:51.269Z,1.05
2022-09-28T04:55:22.873Z,1.27
2022-09-28T04:57:54.419Z,1.35
2022-09-28T05:00:26.211Z,1.17
2022-09-28T05:02:57.705Z,1.05
2022-09-28T05:05:29.505Z,1.10
2022-09-28T05:08:01.070Z,0.90
2022-09-28T05:10:33.005Z,1.17
2022-09-28T05:13:04.641Z,1.08
2022-09-28T05:15:36.335Z,0.85
2022-09-28T05:18:07.903Z,1.40
2022-09-28T05:20:39.736Z,1.05
2022-09-28T05:23:11.416Z,1.08
2022-09-28T05:25:43.180Z,1.02
2022-09-28T05:28:14.725Z,0.98
2022-09-28T05:30:46.566Z,0.70
2022-09-28T05:33:18.071Z,0.98
2022-09-28T05:35:53.835Z,0.90
2022-09-28T05:38:27.048Z,1.20
2022-09-28T05:41:00.342Z,1.20
2022-09-28T05:43:33.811Z,1.08
2022-09-28T05:46:05.369Z,1.20
2022-09-28T05:48:37.425Z,0.95
2022-09-28T05:51:10.128Z,1.23
2022-09-28T05:53:41.967Z,0.82
2022-09-28T05:56:13.456Z,1.13
2022-09-28T05:58:44.981Z,1.15
2022-09-28T06:01:16.644Z,1.10
2022-09-28T06:03:48.209Z,1.10
2022-09-28T06:06:19.746Z,1.30
2022-09-28T06:08:51.650Z,1.00
2022-09-28T06:11:27.579Z,1.02
2022-09-28T06:13:59.233Z,0.82
2022-09-28T06:16:30.978Z,1.02
2022-09-28T06:19:02.851Z,1.08
2022-09-28T06:21:34.345Z,0.80
2022-09-28T06:24:05.856Z,0.77
2022-09-28T06:26:37.413Z,1.23
2022-09-28T06:29:09.239Z,1.20
2022-09-28T06:31:40.801Z,1.15
2022-09-28T06:34:12.718Z,1.08
2022-09-28T06:36:44.212Z,1.05
2022-09-28T06:39:16.177Z,1.20
2022-09-28T06:41:47.726Z,1.13
2022-09-28T06:44:19.555Z,1.20
2022-09-28T06:46:51.535Z,1.13
2022-09-28T06:49:23.417Z,1.35
2022-09-28T06:51:55.057Z,0.75
2022-09-28T06:54:26.926Z,1.15
2022-09-28T06:56:58.422Z,1.40
2022-09-28T06:59:30.170Z,1.10
2022-09-28T07:02:01.797Z,1.10
2022-09-28T07:04:34.360Z,1.40
2022-09-28T07:07:06.552Z,1.23
2022-09-28T07:09:43.752Z,1.00
2022-09-28T07:12:18.067Z,1.45
2022-09-28T07:14:50.735Z,1.35
2022-09-28T07:17:23.074Z,0.90
2022-09-28T07:19:59.090Z,0.93
2022-09-28T07:22:42.453Z,1.15
2022-09-28T07:25:15.102Z,1.40
2022-09-28T07:27:47.469Z,1.17
2022-09-28T07:30:20.101Z,0.85
2022-09-28T07:32:52.090Z,1.23
2022-09-28T07:35:23.776Z,0.73
2022-09-28T07:37:55.583Z,1.63
2022-09-28T07:40:48.388Z,0.95
2022-09-28T07:43:23.360Z,0.82
2022-09-28T07:45:54.998Z,1.30
2022-09-28T07:48:26.886Z,1.38
2022-09-28T07:51:00.039Z,1.20
2022-09-28T07:53:31.892Z,1.02
2022-09-28T07:56:06.208Z,0.90
2022-09-28T07:58:38.073Z,1.35
2022-09-28T08:01:10.418Z,1.45
2022-09-28T08:03:45.549Z,1.00
2022-09-28T08:06:17.182Z,1.02
2022-09-28T08:08:49.611Z,0.80
2022-09-28T08:11:21.312Z,1.17
2022-09-28T08:13:55.902Z,1.00
2022-09-28T08:16:27.511Z,1.00
2022-09-28T08:18:59.404Z,0.90
2022-09-28T08:21:46.135Z,1.00
2022-09-28T08:24:18.384Z,1.00
2022-09-28T08:26:49.961Z,1.10
2022-09-28T08:29:21.834Z,0.80
2022-09-28T08:31:53.338Z,1.15
2022-09-28T08:34:25.327Z,0.90
2022-09-28T08:36:56.884Z,0.80
2022-09-28T08:39:28.471Z,0.80
2022-09-28T08:41:59.968Z,0.63
2022-09-28T08:44:31.810Z,0.88
2022-09-28T08:47:03.342Z,0.63
2022-09-28T08:49:36.464Z,0.90
2022-09-28T08:52:08.208Z,0.82
2022-09-28T08:54:40.244Z,0.70
2022-09-28T08:57:11.896Z,1.17
2022-09-28T08:59:43.695Z,0.77
2022-09-28T09:02:15.283Z,0.70
2022-09-28T09:04:47.279Z,0.70
2022-09-28T09:07:18.860Z,0.60
2022-09-28T09:09:50.395Z,0.60
2022-09-28T09:12:22.224Z,0.50
2022-09-28T09:14:53.754Z,0.50
2022-09-28T09:17:25.730Z,0.52
2022-09-28T09:19:57.488Z,0.40
2022-09-28T09:22:29.488Z,0.50
2022-09-28T09:25:01.029Z,0.50
2022-09-28T09:27:33.203Z,0.60
2022-09-28T09:30:04.722Z,0.43
2022-09-28T09:32:36.579Z,0.60
2022-09-28T09:35:19.530Z,0.68
2022-09-28T09:37:56.540Z,0.60
2022-09-28T09:40:30.490Z,0.50
2022-09-28T09:43:02.435Z,0.50
2022-09-28T09:45:34.000Z,0.40
2022-09-28T09:48:05.841Z,0.55
2022-09-28T09:50:39.427Z,0.50
2022-09-28T09:53:11.276Z,0.50
2022-09-28T09:55:43.235Z,0.38
2022-09-28T09:58:15.264Z,0.60
2022-09-28T10:00:46.774Z,0.50
2022-09-28T10:03:18.616Z,0.68
2022-09-28T10:05:50.103Z,0.50
2022-09-28T10:08:22.053Z,0.50
2022-09-28T10:10:53.549Z,0.57
2022-09-28T10:13:25.679Z,0.40
2022-09-28T10:15:57.208Z,0.60
2022-09-28T10:18:29.166Z,0.57
2022-09-28T10:21:00.696Z,0.40
2022-09-28T10:23:34.267Z,0.60
2022-09-28T10:26:05.755Z,1.20
2022-09-28T10:28:37.602Z,0.60
2022-09-28T10:31:10.157Z,0.68
2022-09-28T10:33:42.786Z,0.57
2022-09-28T10:36:15.873Z,0.45
2022-09-28T10:38:47.727Z,0.55
2022-09-28T10:41:19.232Z,0.70
2022-09-28T10:43:52.919Z,0.70
2022-09-28T10:46:26.513Z,0.70
2022-09-28T10:48:58.418Z,0.50
2022-09-28T10:51:29.971Z,0.47
2022-09-28T10:54:01.826Z,0.38
2022-09-28T10:56:33.326Z,0.60
2022-09-28T10:59:05.219Z,0.88
2022-09-28T11:01:37.173Z,0.52
2022-09-28T11:04:10.394Z,0.80
2022-09-28T11:06:42.289Z,0.70
2022-09-28T11:09:13.792Z,0.80
2022-09-28T11:11:46.372Z,0.68
2022-09-28T11:14:17.879Z,0.65
2022-09-28T11:16:49.463Z,0.65
2022-09-28T11:19:21.482Z,0.85
2022-09-28T11:21:52.989Z,0.60
2022-09-28T11:24:26.677Z,0.60
2022-09-28T11:26:59.968Z,0.82
2022-09-28T11:32:04.169Z,0.70
2022-09-28T11:34:57.543Z,0.70
2022-09-28T11:37:27.938Z,0.70
2022-09-28T11:40:00.129Z,0.90
2022-09-28T11:42:31.658Z,0.55
2022-09-28T11:45:03.726Z,0.80
2022-09-28T11:47:35.214Z,0.50
2022-09-28T11:50:07.116Z,0.60
2022-09-28T11:52:38.689Z,0.63
2022-09-28T11:55:10.288Z,0.40
2022-09-28T11:57:41.823Z,0.77
2022-09-28T12:00:13.385Z,0.60
2022-09-28T12:02:45.397Z,0.30
2022-09-28T12:05:20.761Z,0.37
2022-09-28T12:07:52.709Z,0.60
2022-09-28T12:10:24.197Z,0.32
2022-09-28T12:12:55.717Z,0.40
2022-09-28T12:15:27.233Z,0.38
2022-09-28T12:17:58.836Z,0.30
2022-09-28T12:20:30.595Z,0.30
2022-09-28T12:23:02.655Z,0.55
2022-09-28T12:25:34.215Z,0.40
2022-09-28T12:28:06.112Z,0.30
2022-09-28T12:30:40.427Z,0.50
2022-09-28T12:33:12.274Z,0.50
2022-09-28T12:35:43.819Z,0.40
2022-09-28T12:38:15.626Z,0.38
2022-09-28T12:40:47.193Z,0.20
2022-09-28T12:43:20.339Z,0.30
2022-09-28T12:46:11.119Z,0.65
2022-09-28T12:48:43.718Z,0.28
2022-09-28T12:51:15.189Z,0.20
2022-09-28T12:53:47.032Z,0.30
2022-09-28T12:56:21.480Z,0.30
2022-09-28T12:58:59.799Z,0.20
2022-09-28T13:01:31.367Z,0.40
2022-09-28T13:04:03.243Z,0.52
2022-09-28T13:06:34.712Z,0.30
2022-09-28T13:09:06.486Z,0.28
2022-09-28T13:11:37.962Z,0.30
2022-09-28T13:14:10.392Z,0.30
2022-09-28T13:16:41.945Z,0.20
2022-09-28T13:19:13.797Z,0.30
2022-09-28T13:21:45.706Z,0.20
2022-09-28T13:24:31.715Z,0.22
2022-09-28T13:27:07.322Z,0.20
2022-09-28T13:32:12.900Z,0.30
2022-09-28T13:34:44.424Z,0.30
2022-09-28T13:37:20.304Z,0.40
2022-09-28T13:39:52.574Z,0.30
2022-09-28T13:42:24.444Z,0.28
2022-09-28T13:44:55.989Z,0.30
2022-09-28T13:47:27.677Z,0.47
2022-09-28T13:50:00.371Z,0.30
2022-09-28T13:52:31.891Z,0.20
2022-09-28T13:55:03.407Z,0.40
2022-09-28T13:57:35.369Z,0.40
2022-09-28T14:00:06.872Z,0.30
2022-09-28T14:02:38.901Z,0.47
2022-09-28T14:05:10.402Z,0.30
2022-09-28T14:07:42.224Z,0.30
2022-09-28T14:10:13.747Z,0.30
2022-09-28T14:12:45.715Z,0.38
2022-09-28T14:15:17.217Z,0.35
2022-09-28T14:17:50.388Z,0.30
2022-09-28T14:20:21.864Z,0.30
2022-09-28T14:22:54.984Z,0.30
2022-09-28T14:25:26.508Z,0.40
2022-09-28T14:27:58.289Z,0.40
2022-09-28T14:30:29.784Z,0.40
2022-09-28T14:33:03.214Z,0.40
2022-09-28T14:35:34.734Z,0.25
2022-09-28T14:38:25.180Z,0.32
2022-09-28T14:41:15.247Z,0.30
2022-09-28T14:43:46.785Z,0.20
2022-09-28T14:46:19.101Z,0.30
2022-09-28T14:48:50.825Z,0.30
2022-09-28T14:51:22.965Z,0.60
2022-09-28T14:53:54.652Z,0.50
2022-09-28T14:56:31.847Z,0.47
2022-09-28T14:59:04.140Z,0.47
2022-09-28T15:01:36.044Z,0.40
2022-09-28T15:04:07.537Z,0.38
2022-09-28T15:06:41.456Z,0.52
2022-09-28T15:09:12.912Z,0.50
2022-09-28T15:11:44.765Z,0.40
2022-09-28T15:14:16.582Z,0.50
2022-09-28T15:16:48.398Z,0.47
2022-09-28T15:19:20.920Z,0.38
2022-09-28T15:21:52.422Z,0.63
2022-09-28T15:24:23.902Z,0.65
2022-09-28T15:26:56.820Z,0.43
2022-09-28T15:29:31.248Z,0.30
2022-09-28T15:32:04.245Z,0.70
2022-09-28T15:37:30.390Z,0.50
2022-09-28T15:40:01.890Z,0.57
2022-09-28T15:42:33.456Z,0.20
2022-09-28T15:45:07.740Z,0.20
2022-09-28T15:47:40.445Z,0.43
2022-09-28T15:52:57.759Z,0.20
2022-09-28T15:55:29.291Z,0.47
2022-09-28T15:58:00.800Z,0.55
2022-09-28T16:00:32.568Z,0.30
2022-09-28T16:03:05.434Z,0.40
2022-09-28T16:08:09.003Z,0.30
2022-09-28T16:10:41.428Z,0.50
2022-09-28T16:13:15.458Z,0.50
2022-09-28T16:15:47.067Z,0.32
2022-09-28T16:18:20.079Z,0.45
2022-09-28T16:23:24.041Z,0.38
2022-09-28T16:25:55.915Z,0.57
2022-09-28T16:28:29.550Z,0.40
2022-09-28T16:31:03.302Z,0.57
2022-09-28T16:33:35.176Z,0.60
2022-09-28T16:36:06.787Z,0.63
2022-09-28T16:38:38.801Z,0.70
2022-09-28T16:41:10.615Z,0.70
2022-09-28T16:43:42.082Z,0.60
2022-09-28T16:46:14.030Z,0.60
2022-09-28T16:48:48.877Z,0.75
2022-09-28T16:51:20.788Z,0.70
2022-09-28T16:54:11.653Z,0.65
2022-09-28T16:56:43.152Z,0.70
2022-09-28T16:59:15.114Z,0.50
2022-09-28T17:01:47.300Z,0.80
2022-09-28T17:04:19.353Z,0.83
2022-09-28T17:06:51.041Z,1.23
2022-09-28T17:09:22.868Z,0.60
2022-09-28T17:11:56.650Z,0.88
2022-09-28T17:14:28.791Z,0.90
2022-09-28T17:17:09.000Z,0.70
2022-09-28T17:19:42.414Z,0.80
2022-09-28T17:22:14.258Z,0.85
2022-09-28T17:24:46.445Z,0.80
2022-09-28T17:27:17.956Z,1.17
2022-09-28T17:29:49.755Z,0.73
2022-09-28T17:32:21.231Z,0.60
2022-09-28T17:35:06.451Z,1.20
2022-09-28T17:37:44.875Z,0.88
2022-09-28T17:40:16.472Z,0.80
2022-09-28T17:42:48.117Z,1.48
2022-09-28T17:45:20.050Z,1.13
2022-09-28T17:47:51.546Z,0.90
2022-09-28T17:50:23.042Z,0.90
2022-09-28T17:52:54.569Z,0.85
2022-09-28T17:55:30.384Z,0.98
2022-09-28T17:58:02.137Z,1.42
2022-09-28T18:00:34.541Z,0.80
2022-09-28T18:03:06.402Z,1.13
2022-09-28T18:05:37.933Z,0.88
2022-09-28T18:08:09.765Z,0.95
2022-09-28T18:10:41.268Z,1.15
2022-09-28T18:13:13.235Z,1.17
2022-09-28T18:15:44.814Z,1.23
2022-09-28T18:18:16.657Z,1.10
2022-09-28T18:23:21.536Z,1.13
2022-09-28T18:25:53.047Z,1.37
2022-09-28T18:28:24.739Z,1.10
2022-09-28T18:30:56.331Z,1.13
2022-09-28T18:36:17.208Z,0.90
2022-09-28T18:38:49.069Z,0.80
2022-09-28T18:41:20.574Z,1.52
2022-09-28T18:43:52.502Z,1.20
2022-09-28T18:46:27.747Z,1.42
2022-09-28T18:48:59.674Z,1.40
2022-09-28T18:51:31.237Z,1.02
2022-09-28T18:54:07.535Z,1.35
2022-09-28T18:56:39.052Z,1.13
2022-09-28T18:59:12.353Z,1.33
2022-09-28T19:01:44.112Z,1.25
2022-09-28T19:04:16.060Z,1.38
2022-09-28T19:06:51.731Z,1.55
2022-09-28T19:09:24.935Z,1.40
2022-09-28T19:11:56.720Z,1.50
2022-09-28T19:14:28.195Z,1.42
2022-09-28T19:17:00.161Z,1.70
2022-09-28T19:19:31.762Z,1.35
2022-09-28T19:22:03.582Z,1.33
2022-09-28T19:24:35.100Z,1.35
2022-09-28T19:27:06.946Z,1.13
2022-09-28T19:29:38.426Z,1.40
2022-09-28T19:32:12.605Z,1.65
2022-09-28T19:34:44.075Z,1.40
2022-09-28T19:37:15.926Z,1.00
2022-09-28T19:39:47.390Z,2.03
2022-09-28T19:42:18.935Z,1.48
2022-09-28T19:44:51.018Z,1.50
2022-09-28T19:47:22.800Z,1.53
2022-09-28T19:49:54.534Z,1.70
2022-09-28T19:52:26.088Z,1.38
2022-09-28T19:54:57.649Z,1.25
2022-09-28T19:57:29.269Z,1.38
2022-09-28T20:00:03.310Z,1.45
2022-09-28T20:02:35.586Z,1.15
2022-09-28T20:05:09.798Z,1.60
2022-09-28T20:07:41.479Z,1.60
2022-09-28T20:10:13.106Z,1.60
2022-09-28T20:12:44.958Z,1.35
2022-09-28T20:15:16.945Z,1.20
2022-09-28T20:17:48.998Z,1.17
2022-09-28T20:20:20.467Z,1.17
2022-09-28T20:22:52.725Z,1.10
2022-09-28T20:25:29.174Z,1.45
2022-09-28T20:28:00.945Z,1.33
2022-09-28T20:30:33.111Z,1.23
2022-09-28T20:33:04.770Z,1.30
2022-09-28T20:35:36.252Z,1.33
2022-09-28T20:38:08.059Z,1.15
2022-09-28T20:40:42.069Z,0.98
2022-09-28T20:43:15.452Z,0.88
2022-09-28T20:45:47.156Z,1.20
2022-09-28T20:48:19.993Z,0.90
2022-09-28T20:50:51.550Z,1.33
2022-09-28T20:53:23.796Z,0.80
2022-09-28T20:55:55.979Z,0.93
2022-09-28T20:58:27.818Z,0.90
2022-09-28T21:00:59.309Z,1.48
2022-09-28T21:03:31.414Z,1.17
2022-09-28T21:06:02.958Z,0.97
2022-09-28T21:08:34.768Z,1.27
2022-09-28T21:11:07.185Z,0.90
2022-09-28T21:13:41.868Z,1.20
2022-09-28T21:16:13.399Z,1.17
2022-09-28T21:18:45.352Z,1.23
2022-09-28T21:21:16.801Z,1.05
2022-09-28T21:23:48.644Z,1.10
2022-09-28T21:26:25.283Z,0.98
2022-09-28T21:28:56.752Z,1.52
2022-09-28T21:31:29.526Z,1.85
2022-09-28T21:36:32.651Z,1.20
2022-09-28T21:39:09.545Z,0.95
2022-09-28T21:41:42.199Z,1.30
2022-09-28T21:44:13.661Z,0.82
2022-09-28T21:46:45.608Z,0.80
2022-09-28T21:49:17.177Z,1.00
2022-09-28T21:51:48.987Z,0.93
2022-09-28T21:54:21.341Z,1.02
2022-09-28T21:56:53.161Z,1.00
2022-09-28T21:59:24.980Z,1.33
2022-09-28T22:01:56.793Z,1.35
2022-09-28T22:04:28.324Z,1.33
2022-09-28T22:07:00.384Z,1.08
2022-09-28T22:09:31.922Z,1.27
2022-09-28T22:12:03.953Z,1.10
2022-09-28T22:14:35.434Z,1.10
2022-09-28T22:17:07.281Z,1.10
2022-09-28T22:19:38.801Z,1.27
2022-09-28T22:22:10.593Z,1.20
2022-09-28T22:24:42.086Z,1.00
2022-09-28T22:27:15.161Z,0.95
2022-09-28T22:29:46.631Z,0.90
2022-09-28T22:32:18.508Z,1.08
2022-09-28T22:34:50.016Z,1.60
2022-09-28T22:37:21.927Z,0.80
2022-09-28T22:39:53.993Z,0.98
2022-09-28T22:42:26.261Z,1.03
2022-09-28T22:44:57.742Z,0.93
2022-09-28T22:47:29.513Z,1.17
2022-09-28T22:50:00.979Z,0.80
2022-09-28T22:52:32.452Z,1.17
2022-09-28T22:55:03.932Z,1.52
2022-09-28T22:57:35.710Z,0.88
2022-09-28T23:00:07.224Z,1.02
2022-09-28T23:02:39.105Z,1.27
2022-09-28T23:05:10.674Z,0.80
2022-09-28T23:07:42.469Z,1.48
2022-09-28T23:10:13.949Z,1.35
2022-09-28T23:12:45.909Z,1.13
2022-09-28T23:15:17.370Z,1.30
2022-09-28T23:17:49.191Z,1.65
2022-09-28T23:20:20.644Z,1.65
2022-09-28T23:22:52.508Z,1.08
2022-09-28T23:25:24.004Z,0.98
2022-09-28T23:27:55.801Z,1.73
2022-09-28T23:30:27.342Z,1.15
2022-09-28T23:32:59.254Z,0.70
2022-09-28T23:35:30.723Z,1.02
2022-09-28T23:38:02.648Z,1.13
2022-09-28T23:40:34.260Z,1.30
2022-09-28T23:43:06.117Z,1.30
2022-09-28T23:45:37.661Z,1.20
2022-09-28T23:48:09.529Z,1.05
2022-09-28T23:50:40.993Z,1.35
2022-09-28T23:53:13.968Z,1.35
2022-09-28T23:58:17.271Z,0.88
